sensor_id;sensor_type;location;lat;lon;timestamp;P1;durP1;ratioP1;P2;durP2;ratioP2
68234;SDS011;55052;52.056;5.296;2023-08-08T00:00:49;12.02;;;3.03;;
68234;SDS011;55052;52.056;5.296;2023-08-08T00:03:15;11.55;;;3.65;;
68234;SDS011;55052;52.056;5.296;2023-08-08T00:05:42;13.15;;;3.25;;
68234;SDS011;55052;52.056;5.296;2023-08-08T00:08:09;14.82;;;3.20;;
68234;SDS011;55052;52.056;5.296;2023-08-08T00:10:36;12.40;;;3.10;;
68234;SDS011;55052;52.056;5.296;2023-08-08T00:13:03;7.80;;;2.63;;
68234;SDS011;55052;52.056;5.296;2023-08-08T00:15:30;14.43;;;3.50;;
68234;SDS011;55052;52.056;5.296;2023-08-08T00:17:57;11.85;;;2.95;;
68234;SDS011;55052;52.056;5.296;2023-08-08T00:20:24;11.55;;;3.15;;
68234;SDS011;55052;52.056;5.296;2023-08-08T00:22:50;8.95;;;2.72;;
68234;SDS011;55052;52.056;5.296;2023-08-08T00:25:17;8.82;;;2.90;;
68234;SDS011;55052;52.056;5.296;2023-08-08T00:27:44;14.45;;;3.30;;
68234;SDS011;55052;52.056;5.296;2023-08-08T00:30:11;11.60;;;2.78;;
68234;SDS011;55052;52.056;5.296;2023-08-08T00:32:41;12.63;;;3.30;;
68234;SDS011;55052;52.056;5.296;2023-08-08T00:35:08;15.07;;;4.03;;
68234;SDS011;55052;52.056;5.296;2023-08-08T00:37:35;14.70;;;3.13;;
68234;SDS011;55052;52.056;5.296;2023-08-08T00:40:02;13.48;;;3.10;;
68234;SDS011;55052;52.056;5.296;2023-08-08T00:42:29;10.07;;;2.75;;
68234;SDS011;55052;52.056;5.296;2023-08-08T00:44:56;9.85;;;2.90;;
68234;SDS011;55052;52.056;5.296;2023-08-08T00:47:28;10.57;;;2.90;;
68234;SDS011;55052;52.056;5.296;2023-08-08T00:49:56;17.20;;;4.55;;
68234;SDS011;55052;52.056;5.296;2023-08-08T00:52:23;11.48;;;2.95;;
68234;SDS011;55052;52.056;5.296;2023-08-08T00:54:52;12.68;;;2.80;;
68234;SDS011;55052;52.056;5.296;2023-08-08T00:57:19;12.50;;;2.90;;
68234;SDS011;55052;52.056;5.296;2023-08-08T00:59:46;11.85;;;2.80;;
68234;SDS011;55052;52.056;5.296;2023-08-08T01:02:13;14.20;;;3.58;;
68234;SDS011;55052;52.056;5.296;2023-08-08T01:04:40;11.98;;;3.15;;
68234;SDS011;55052;52.056;5.296;2023-08-08T01:07:13;9.48;;;2.65;;
68234;SDS011;55052;52.056;5.296;2023-08-08T01:10:04;11.48;;;2.92;;
68234;SDS011;55052;52.056;5.296;2023-08-08T01:12:36;14.25;;;3.38;;
68234;SDS011;55052;52.056;5.296;2023-08-08T01:15:07;10.82;;;2.75;;
68234;SDS011;55052;52.056;5.296;2023-08-08T01:17:35;16.20;;;3.95;;
68234;SDS011;55052;52.056;5.296;2023-08-08T01:20:03;13.20;;;3.35;;
68234;SDS011;55052;52.056;5.296;2023-08-08T01:22:39;11.82;;;3.28;;
68234;SDS011;55052;52.056;5.296;2023-08-08T01:25:11;8.43;;;2.80;;
68234;SDS011;55052;52.056;5.296;2023-08-08T01:27:38;7.97;;;2.75;;
68234;SDS011;55052;52.056;5.296;2023-08-08T01:30:06;14.38;;;3.28;;
68234;SDS011;55052;52.056;5.296;2023-08-08T01:32:33;13.52;;;3.80;;
68234;SDS011;55052;52.056;5.296;2023-08-08T01:35:00;13.40;;;2.90;;
68234;SDS011;55052;52.056;5.296;2023-08-08T01:37:32;13.40;;;3.58;;
68234;SDS011;55052;52.056;5.296;2023-08-08T01:40:03;13.55;;;3.67;;
68234;SDS011;55052;52.056;5.296;2023-08-08T01:42:31;12.77;;;3.78;;
68234;SDS011;55052;52.056;5.296;2023-08-08T01:44:59;14.20;;;3.40;;
68234;SDS011;55052;52.056;5.296;2023-08-08T01:47:26;17.88;;;3.92;;
68234;SDS011;55052;52.056;5.296;2023-08-08T01:49:53;13.10;;;3.17;;
68234;SDS011;55052;52.056;5.296;2023-08-08T01:52:20;14.45;;;3.28;;
68234;SDS011;55052;52.056;5.296;2023-08-08T01:54:48;10.68;;;3.20;;
68234;SDS011;55052;52.056;5.296;2023-08-08T01:57:15;12.38;;;2.95;;
68234;SDS011;55052;52.056;5.296;2023-08-08T01:59:43;14.18;;;3.20;;
68234;SDS011;55052;52.056;5.296;2023-08-08T02:02:11;11.20;;;3.58;;
68234;SDS011;55052;52.056;5.296;2023-08-08T02:04:38;12.52;;;3.53;;
68234;SDS011;55052;52.056;5.296;2023-08-08T02:07:04;13.43;;;3.80;;
68234;SDS011;55052;52.056;5.296;2023-08-08T02:09:31;20.77;;;3.95;;
68234;SDS011;55052;52.056;5.296;2023-08-08T02:11:58;16.38;;;3.63;;
68234;SDS011;55052;52.056;5.296;2023-08-08T02:14:25;11.07;;;3.53;;
68234;SDS011;55052;52.056;5.296;2023-08-08T02:16:52;12.57;;;3.53;;
68234;SDS011;55052;52.056;5.296;2023-08-08T02:19:19;16.42;;;3.55;;
68234;SDS011;55052;52.056;5.296;2023-08-08T02:21:45;13.95;;;3.53;;
68234;SDS011;55052;52.056;5.296;2023-08-08T02:24:12;12.77;;;3.30;;
68234;SDS011;55052;52.056;5.296;2023-08-08T02:26:39;12.95;;;3.33;;
68234;SDS011;55052;52.056;5.296;2023-08-08T02:29:06;14.52;;;4.25;;
68234;SDS011;55052;52.056;5.296;2023-08-08T02:31:33;11.00;;;3.40;;
68234;SDS011;55052;52.056;5.296;2023-08-08T02:33:59;14.27;;;3.80;;
68234;SDS011;55052;52.056;5.296;2023-08-08T02:36:26;10.82;;;3.60;;
68234;SDS011;55052;52.056;5.296;2023-08-08T02:38:53;12.25;;;3.45;;
68234;SDS011;55052;52.056;5.296;2023-08-08T02:41:20;13.18;;;3.75;;
68234;SDS011;55052;52.056;5.296;2023-08-08T02:43:47;10.25;;;3.60;;
68234;SDS011;55052;52.056;5.296;2023-08-08T02:46:14;12.55;;;3.60;;
68234;SDS011;55052;52.056;5.296;2023-08-08T02:48:40;12.63;;;4.20;;
68234;SDS011;55052;52.056;5.296;2023-08-08T02:51:07;9.35;;;3.67;;
68234;SDS011;55052;52.056;5.296;2023-08-08T02:53:34;13.82;;;3.92;;
68234;SDS011;55052;52.056;5.296;2023-08-08T02:56:01;14.57;;;3.92;;
68234;SDS011;55052;52.056;5.296;2023-08-08T02:58:28;11.02;;;3.95;;
68234;SDS011;55052;52.056;5.296;2023-08-08T03:00:54;12.93;;;3.60;;
68234;SDS011;55052;52.056;5.296;2023-08-08T03:03:21;10.75;;;4.15;;
68234;SDS011;55052;52.056;5.296;2023-08-08T03:05:48;11.13;;;4.07;;
68234;SDS011;55052;52.056;5.296;2023-08-08T03:08:15;9.48;;;3.65;;
68234;SDS011;55052;52.056;5.296;2023-08-08T03:10:42;9.68;;;4.15;;
68234;SDS011;55052;52.056;5.296;2023-08-08T03:13:08;13.77;;;4.00;;
68234;SDS011;55052;52.056;5.296;2023-08-08T03:15:35;10.20;;;3.67;;
68234;SDS011;55052;52.056;5.296;2023-08-08T03:18:03;8.68;;;3.83;;
68234;SDS011;55052;52.056;5.296;2023-08-08T03:20:30;10.43;;;4.15;;
68234;SDS011;55052;52.056;5.296;2023-08-08T03:22:57;16.33;;;4.18;;
68234;SDS011;55052;52.056;5.296;2023-08-08T03:25:23;11.73;;;4.53;;
68234;SDS011;55052;52.056;5.296;2023-08-08T03:27:51;12.73;;;4.30;;
68234;SDS011;55052;52.056;5.296;2023-08-08T03:30:18;10.63;;;3.97;;
68234;SDS011;55052;52.056;5.296;2023-08-08T03:32:44;9.98;;;4.53;;
68234;SDS011;55052;52.056;5.296;2023-08-08T03:35:11;10.80;;;4.50;;
68234;SDS011;55052;52.056;5.296;2023-08-08T03:37:38;12.35;;;4.43;;
68234;SDS011;55052;52.056;5.296;2023-08-08T03:40:05;18.17;;;4.80;;
68234;SDS011;55052;52.056;5.296;2023-08-08T03:42:33;13.23;;;4.13;;
68234;SDS011;55052;52.056;5.296;2023-08-08T03:45:00;10.18;;;4.32;;
68234;SDS011;55052;52.056;5.296;2023-08-08T03:47:27;11.75;;;4.00;;
68234;SDS011;55052;52.056;5.296;2023-08-08T03:49:55;11.45;;;4.13;;
68234;SDS011;55052;52.056;5.296;2023-08-08T03:52:24;13.75;;;4.95;;
68234;SDS011;55052;52.056;5.296;2023-08-08T03:54:51;14.68;;;4.82;;
68234;SDS011;55052;52.056;5.296;2023-08-08T03:57:18;12.70;;;4.82;;
68234;SDS011;55052;52.056;5.296;2023-08-08T03:59:45;12.20;;;4.30;;
68234;SDS011;55052;52.056;5.296;2023-08-08T04:02:11;11.98;;;4.05;;
68234;SDS011;55052;52.056;5.296;2023-08-08T04:04:38;8.07;;;4.38;;
68234;SDS011;55052;52.056;5.296;2023-08-08T04:07:05;13.07;;;4.65;;
68234;SDS011;55052;52.056;5.296;2023-08-08T04:09:32;10.23;;;4.30;;
68234;SDS011;55052;52.056;5.296;2023-08-08T04:11:59;10.95;;;4.57;;
68234;SDS011;55052;52.056;5.296;2023-08-08T04:14:26;10.65;;;4.65;;
68234;SDS011;55052;52.056;5.296;2023-08-08T04:16:53;12.65;;;4.50;;
68234;SDS011;55052;52.056;5.296;2023-08-08T04:19:20;9.00;;;4.13;;
68234;SDS011;55052;52.056;5.296;2023-08-08T04:21:47;17.23;;;5.20;;
68234;SDS011;55052;52.056;5.296;2023-08-08T04:24:13;12.52;;;5.25;;
68234;SDS011;55052;52.056;5.296;2023-08-08T04:26:40;14.25;;;5.07;;
68234;SDS011;55052;52.056;5.296;2023-08-08T04:29:07;10.40;;;4.72;;
68234;SDS011;55052;52.056;5.296;2023-08-08T04:31:34;10.55;;;4.55;;
68234;SDS011;55052;52.056;5.296;2023-08-08T04:34:01;12.35;;;4.05;;
68234;SDS011;55052;52.056;5.296;2023-08-08T04:36:28;13.88;;;4.82;;
68234;SDS011;55052;52.056;5.296;2023-08-08T04:38:55;12.82;;;4.60;;
68234;SDS011;55052;52.056;5.296;2023-08-08T04:41:22;12.90;;;5.03;;
68234;SDS011;55052;52.056;5.296;2023-08-08T04:43:49;12.38;;;5.05;;
68234;SDS011;55052;52.056;5.296;2023-08-08T04:46:16;12.73;;;4.93;;
68234;SDS011;55052;52.056;5.296;2023-08-08T04:48:43;9.77;;;4.60;;
68234;SDS011;55052;52.056;5.296;2023-08-08T04:51:09;10.80;;;4.75;;
68234;SDS011;55052;52.056;5.296;2023-08-08T04:53:36;11.68;;;4.85;;
68234;SDS011;55052;52.056;5.296;2023-08-08T04:56:03;11.82;;;4.30;;
68234;SDS011;55052;52.056;5.296;2023-08-08T04:58:30;11.25;;;5.00;;
68234;SDS011;55052;52.056;5.296;2023-08-08T05:00:57;14.57;;;5.18;;
68234;SDS011;55052;52.056;5.296;2023-08-08T05:03:24;12.43;;;4.47;;
68234;SDS011;55052;52.056;5.296;2023-08-08T05:05:50;9.55;;;4.05;;
68234;SDS011;55052;52.056;5.296;2023-08-08T05:08:17;16.23;;;4.53;;
68234;SDS011;55052;52.056;5.296;2023-08-08T05:10:44;9.27;;;3.97;;
68234;SDS011;55052;52.056;5.296;2023-08-08T05:13:12;11.98;;;4.07;;
68234;SDS011;55052;52.056;5.296;2023-08-08T05:15:39;14.43;;;4.10;;
68234;SDS011;55052;52.056;5.296;2023-08-08T05:18:06;11.05;;;3.67;;
68234;SDS011;55052;52.056;5.296;2023-08-08T05:20:33;9.70;;;3.78;;
68234;SDS011;55052;52.056;5.296;2023-08-08T05:23:00;8.20;;;3.20;;
68234;SDS011;55052;52.056;5.296;2023-08-08T05:25:26;10.35;;;3.80;;
68234;SDS011;55052;52.056;5.296;2023-08-08T05:27:53;9.63;;;3.40;;
68234;SDS011;55052;52.056;5.296;2023-08-08T05:30:20;9.15;;;3.50;;
68234;SDS011;55052;52.056;5.296;2023-08-08T05:32:47;11.73;;;2.97;;
68234;SDS011;55052;52.056;5.296;2023-08-08T05:35:14;9.57;;;3.00;;
68234;SDS011;55052;52.056;5.296;2023-08-08T05:37:41;7.63;;;2.33;;
68234;SDS011;55052;52.056;5.296;2023-08-08T05:40:08;6.03;;;2.40;;
68234;SDS011;55052;52.056;5.296;2023-08-08T05:42:37;10.55;;;2.70;;
68234;SDS011;55052;52.056;5.296;2023-08-08T05:45:05;6.68;;;2.42;;
68234;SDS011;55052;52.056;5.296;2023-08-08T05:47:32;8.23;;;2.30;;
68234;SDS011;55052;52.056;5.296;2023-08-08T05:50:00;9.25;;;2.45;;
68234;SDS011;55052;52.056;5.296;2023-08-08T05:52:26;8.90;;;2.13;;
68234;SDS011;55052;52.056;5.296;2023-08-08T05:54:53;8.65;;;1.92;;
68234;SDS011;55052;52.056;5.296;2023-08-08T05:57:20;6.00;;;2.10;;
68234;SDS011;55052;52.056;5.296;2023-08-08T05:59:48;4.32;;;1.73;;
68234;SDS011;55052;52.056;5.296;2023-08-08T06:02:15;5.55;;;1.98;;
68234;SDS011;55052;52.056;5.296;2023-08-08T06:04:42;4.45;;;1.80;;
68234;SDS011;55052;52.056;5.296;2023-08-08T06:07:09;6.60;;;1.90;;
68234;SDS011;55052;52.056;5.296;2023-08-08T06:09:36;3.63;;;1.80;;
68234;SDS011;55052;52.056;5.296;2023-08-08T06:12:04;3.67;;;1.75;;
68234;SDS011;55052;52.056;5.296;2023-08-08T06:14:31;7.18;;;2.10;;
68234;SDS011;55052;52.056;5.296;2023-08-08T06:16:58;8.05;;;2.30;;
68234;SDS011;55052;52.056;5.296;2023-08-08T06:19:25;14.73;;;2.05;;
68234;SDS011;55052;52.056;5.296;2023-08-08T06:21:51;5.60;;;1.70;;
68234;SDS011;55052;52.056;5.296;2023-08-08T06:24:18;6.70;;;1.80;;
68234;SDS011;55052;52.056;5.296;2023-08-08T06:26:45;7.05;;;1.80;;
68234;SDS011;55052;52.056;5.296;2023-08-08T06:29:12;6.35;;;1.65;;
68234;SDS011;55052;52.056;5.296;2023-08-08T06:31:40;3.63;;;1.55;;
68234;SDS011;55052;52.056;5.296;2023-08-08T06:34:08;4.55;;;1.50;;
68234;SDS011;55052;52.056;5.296;2023-08-08T06:36:35;4.60;;;1.70;;
68234;SDS011;55052;52.056;5.296;2023-08-08T06:39:02;6.30;;;1.73;;
68234;SDS011;55052;52.056;5.296;2023-08-08T06:41:29;3.92;;;1.63;;
68234;SDS011;55052;52.056;5.296;2023-08-08T06:43:56;5.68;;;1.70;;
68234;SDS011;55052;52.056;5.296;2023-08-08T06:46:23;5.93;;;1.60;;
68234;SDS011;55052;52.056;5.296;2023-08-08T06:48:51;4.18;;;1.40;;
68234;SDS011;55052;52.056;5.296;2023-08-08T06:51:23;7.35;;;1.50;;
68234;SDS011;55052;52.056;5.296;2023-08-08T06:53:53;3.95;;;1.70;;
68234;SDS011;55052;52.056;5.296;2023-08-08T06:56:20;7.70;;;1.60;;
68234;SDS011;55052;52.056;5.296;2023-08-08T06:58:47;6.03;;;1.60;;
68234;SDS011;55052;52.056;5.296;2023-08-08T07:01:14;4.80;;;1.58;;
68234;SDS011;55052;52.056;5.296;2023-08-08T07:03:40;6.35;;;1.70;;
68234;SDS011;55052;52.056;5.296;2023-08-08T07:06:07;5.22;;;1.40;;
68234;SDS011;55052;52.056;5.296;2023-08-08T07:08:34;3.75;;;1.58;;
68234;SDS011;55052;52.056;5.296;2023-08-08T07:11:01;4.30;;;1.35;;
68234;SDS011;55052;52.056;5.296;2023-08-08T07:13:28;6.20;;;1.40;;
68234;SDS011;55052;52.056;5.296;2023-08-08T07:15:55;4.43;;;1.60;;
68234;SDS011;55052;52.056;5.296;2023-08-08T07:18:22;2.67;;;1.30;;
68234;SDS011;55052;52.056;5.296;2023-08-08T07:20:49;4.05;;;1.30;;
68234;SDS011;55052;52.056;5.296;2023-08-08T07:23:15;4.20;;;1.50;;
68234;SDS011;55052;52.056;5.296;2023-08-08T07:25:43;3.38;;;1.17;;
68234;SDS011;55052;52.056;5.296;2023-08-08T07:28:11;4.00;;;1.08;;
68234;SDS011;55052;52.056;5.296;2023-08-08T07:30:38;3.75;;;1.20;;
68234;SDS011;55052;52.056;5.296;2023-08-08T07:33:04;2.65;;;1.33;;
68234;SDS011;55052;52.056;5.296;2023-08-08T07:35:32;4.63;;;1.20;;
68234;SDS011;55052;52.056;5.296;2023-08-08T07:37:59;5.18;;;1.23;;
68234;SDS011;55052;52.056;5.296;2023-08-08T07:40:26;3.15;;;1.30;;
68234;SDS011;55052;52.056;5.296;2023-08-08T07:42:53;4.28;;;1.08;;
68234;SDS011;55052;52.056;5.296;2023-08-08T07:45:20;3.60;;;1.10;;
68234;SDS011;55052;52.056;5.296;2023-08-08T07:47:47;5.88;;;1.50;;
68234;SDS011;55052;52.056;5.296;2023-08-08T07:50:14;3.22;;;1.10;;
68234;SDS011;55052;52.056;5.296;2023-08-08T07:52:42;3.33;;;1.10;;
68234;SDS011;55052;52.056;5.296;2023-08-08T07:55:08;5.43;;;1.10;;
68234;SDS011;55052;52.056;5.296;2023-08-08T07:57:36;4.38;;;1.35;;
68234;SDS011;55052;52.056;5.296;2023-08-08T08:00:03;5.25;;;1.30;;
68234;SDS011;55052;52.056;5.296;2023-08-08T08:02:41;3.25;;;1.30;;
68234;SDS011;55052;52.056;5.296;2023-08-08T08:05:09;5.55;;;1.23;;
68234;SDS011;55052;52.056;5.296;2023-08-08T08:07:37;5.78;;;1.30;;
68234;SDS011;55052;52.056;5.296;2023-08-08T08:10:07;4.78;;;1.40;;
68234;SDS011;55052;52.056;5.296;2023-08-08T08:12:36;2.55;;;1.10;;
68234;SDS011;55052;52.056;5.296;2023-08-08T08:15:03;2.15;;;1.10;;
68234;SDS011;55052;52.056;5.296;2023-08-08T08:17:31;3.00;;;1.23;;
68234;SDS011;55052;52.056;5.296;2023-08-08T08:19:58;3.95;;;1.20;;
68234;SDS011;55052;52.056;5.296;2023-08-08T08:22:25;3.00;;;1.10;;
68234;SDS011;55052;52.056;5.296;2023-08-08T08:24:52;2.42;;;1.00;;
68234;SDS011;55052;52.056;5.296;2023-08-08T08:27:19;4.95;;;1.05;;
68234;SDS011;55052;52.056;5.296;2023-08-08T08:29:45;3.45;;;1.17;;
68234;SDS011;55052;52.056;5.296;2023-08-08T08:32:12;2.78;;;1.08;;
68234;SDS011;55052;52.056;5.296;2023-08-08T08:34:39;4.18;;;1.00;;
68234;SDS011;55052;52.056;5.296;2023-08-08T08:37:07;7.82;;;1.35;;
68234;SDS011;55052;52.056;5.296;2023-08-08T08:39:33;3.40;;;1.25;;
68234;SDS011;55052;52.056;5.296;2023-08-08T08:42:00;2.00;;;0.85;;
68234;SDS011;55052;52.056;5.296;2023-08-08T08:44:30;3.33;;;1.10;;
68234;SDS011;55052;52.056;5.296;2023-08-08T08:47:03;2.90;;;1.02;;
68234;SDS011;55052;52.056;5.296;2023-08-08T08:49:38;2.42;;;1.10;;
68234;SDS011;55052;52.056;5.296;2023-08-08T08:52:05;2.88;;;1.20;;
68234;SDS011;55052;52.056;5.296;2023-08-08T08:54:32;2.00;;;1.05;;
68234;SDS011;55052;52.056;5.296;2023-08-08T08:56:59;2.97;;;1.00;;
68234;SDS011;55052;52.056;5.296;2023-08-08T08:59:26;4.20;;;0.98;;
68234;SDS011;55052;52.056;5.296;2023-08-08T09:01:53;4.72;;;1.17;;
68234;SDS011;55052;52.056;5.296;2023-08-08T09:04:20;4.20;;;1.27;;
68234;SDS011;55052;52.056;5.296;2023-08-08T09:06:48;2.17;;;1.00;;
68234;SDS011;55052;52.056;5.296;2023-08-08T09:09:16;3.60;;;1.20;;
68234;SDS011;55052;52.056;5.296;2023-08-08T09:11:50;3.20;;;1.10;;
68234;SDS011;55052;52.056;5.296;2023-08-08T09:14:21;4.55;;;1.15;;
68234;SDS011;55052;52.056;5.296;2023-08-08T09:16:49;1.92;;;1.10;;
68234;SDS011;55052;52.056;5.296;2023-08-08T09:19:20;3.33;;;1.10;;
68234;SDS011;55052;52.056;5.296;2023-08-08T09:21:47;2.85;;;1.10;;
68234;SDS011;55052;52.056;5.296;2023-08-08T09:24:14;2.65;;;1.20;;
68234;SDS011;55052;52.056;5.296;2023-08-08T09:26:42;4.65;;;1.20;;
68234;SDS011;55052;52.056;5.296;2023-08-08T09:29:10;3.05;;;1.00;;
68234;SDS011;55052;52.056;5.296;2023-08-08T09:31:39;4.50;;;1.20;;
68234;SDS011;55052;52.056;5.296;2023-08-08T09:34:06;2.58;;;1.00;;
68234;SDS011;55052;52.056;5.296;2023-08-08T09:36:33;2.00;;;1.00;;
68234;SDS011;55052;52.056;5.296;2023-08-08T09:39:01;4.50;;;1.20;;
68234;SDS011;55052;52.056;5.296;2023-08-08T09:41:28;5.40;;;1.33;;
68234;SDS011;55052;52.056;5.296;2023-08-08T09:43:55;1.70;;;1.15;;
68234;SDS011;55052;52.056;5.296;2023-08-08T09:46:22;3.33;;;1.10;;
68234;SDS011;55052;52.056;5.296;2023-08-08T09:48:49;2.63;;;1.10;;
68234;SDS011;55052;52.056;5.296;2023-08-08T09:51:16;4.03;;;1.38;;
68234;SDS011;55052;52.056;5.296;2023-08-08T09:53:44;4.07;;;1.42;;
68234;SDS011;55052;52.056;5.296;2023-08-08T09:56:13;5.30;;;1.70;;
68234;SDS011;55052;52.056;5.296;2023-08-08T09:58:42;3.67;;;1.20;;
68234;SDS011;55052;52.056;5.296;2023-08-08T10:01:10;2.47;;;1.10;;
68234;SDS011;55052;52.056;5.296;2023-08-08T10:03:39;3.53;;;1.50;;
68234;SDS011;55052;52.056;5.296;2023-08-08T10:06:10;4.13;;;1.20;;
68234;SDS011;55052;52.056;5.296;2023-08-08T10:08:36;4.15;;;1.50;;
68234;SDS011;55052;52.056;5.296;2023-08-08T10:11:04;4.40;;;1.30;;
68234;SDS011;55052;52.056;5.296;2023-08-08T10:13:33;4.00;;;1.20;;
68234;SDS011;55052;52.056;5.296;2023-08-08T10:16:07;2.38;;;1.20;;
68234;SDS011;55052;52.056;5.296;2023-08-08T10:18:35;3.35;;;1.60;;
68234;SDS011;55052;52.056;5.296;2023-08-08T10:21:03;4.22;;;1.73;;
68234;SDS011;55052;52.056;5.296;2023-08-08T10:23:35;2.47;;;1.30;;
68234;SDS011;55052;52.056;5.296;2023-08-08T10:26:03;2.80;;;1.20;;
68234;SDS011;55052;52.056;5.296;2023-08-08T10:28:32;7.20;;;1.27;;
68234;SDS011;55052;52.056;5.296;2023-08-08T10:31:00;2.10;;;1.30;;
68234;SDS011;55052;52.056;5.296;2023-08-08T10:33:38;4.68;;;1.20;;
68234;SDS011;55052;52.056;5.296;2023-08-08T10:36:07;2.38;;;1.20;;
68234;SDS011;55052;52.056;5.296;2023-08-08T10:38:39;5.03;;;1.60;;
68234;SDS011;55052;52.056;5.296;2023-08-08T10:41:11;4.50;;;1.20;;
68234;SDS011;55052;52.056;5.296;2023-08-08T10:43:54;3.72;;;1.30;;
68234;SDS011;55052;52.056;5.296;2023-08-08T10:46:23;5.07;;;1.40;;
68234;SDS011;55052;52.056;5.296;2023-08-08T10:48:53;3.47;;;1.50;;
68234;SDS011;55052;52.056;5.296;2023-08-08T10:51:21;5.75;;;1.30;;
68234;SDS011;55052;52.056;5.296;2023-08-08T10:53:51;3.35;;;1.15;;
68234;SDS011;55052;52.056;5.296;2023-08-08T10:56:18;5.43;;;1.30;;
68234;SDS011;55052;52.056;5.296;2023-08-08T10:58:48;1.80;;;1.20;;
68234;SDS011;55052;52.056;5.296;2023-08-08T11:01:15;3.13;;;1.20;;
68234;SDS011;55052;52.056;5.296;2023-08-08T11:03:43;7.20;;;1.90;;
68234;SDS011;55052;52.056;5.296;2023-08-08T11:06:11;5.10;;;1.63;;
68234;SDS011;55052;52.056;5.296;2023-08-08T11:08:38;5.03;;;1.50;;
68234;SDS011;55052;52.056;5.296;2023-08-08T11:11:05;4.90;;;1.60;;
68234;SDS011;55052;52.056;5.296;2023-08-08T11:13:33;2.28;;;1.33;;
68234;SDS011;55052;52.056;5.296;2023-08-08T11:16:00;4.78;;;1.20;;
68234;SDS011;55052;52.056;5.296;2023-08-08T11:18:30;2.28;;;1.25;;
68234;SDS011;55052;52.056;5.296;2023-08-08T11:20:57;4.78;;;1.70;;
68234;SDS011;55052;52.056;5.296;2023-08-08T11:23:45;3.88;;;1.50;;
68234;SDS011;55052;52.056;5.296;2023-08-08T11:26:13;9.18;;;1.60;;
68234;SDS011;55052;52.056;5.296;2023-08-08T11:28:52;2.97;;;1.35;;
68234;SDS011;55052;52.056;5.296;2023-08-08T11:31:22;3.80;;;1.88;;
68234;SDS011;55052;52.056;5.296;2023-08-08T11:33:50;4.53;;;1.35;;
68234;SDS011;55052;52.056;5.296;2023-08-08T11:36:20;6.93;;;1.50;;
68234;SDS011;55052;52.056;5.296;2023-08-08T11:38:48;2.50;;;1.30;;
68234;SDS011;55052;52.056;5.296;2023-08-08T11:41:17;4.22;;;1.40;;
68234;SDS011;55052;52.056;5.296;2023-08-08T11:43:46;4.00;;;1.50;;
68234;SDS011;55052;52.056;5.296;2023-08-08T11:46:14;2.85;;;1.15;;
68234;SDS011;55052;52.056;5.296;2023-08-08T11:48:41;3.75;;;1.15;;
68234;SDS011;55052;52.056;5.296;2023-08-08T11:51:09;2.85;;;1.30;;
68234;SDS011;55052;52.056;5.296;2023-08-08T11:53:36;3.63;;;1.30;;
68234;SDS011;55052;52.056;5.296;2023-08-08T11:56:13;2.30;;;1.23;;
68234;SDS011;55052;52.056;5.296;2023-08-08T11:58:40;3.05;;;1.60;;
68234;SDS011;55052;52.056;5.296;2023-08-08T12:01:07;3.33;;;1.20;;
68234;SDS011;55052;52.056;5.296;2023-08-08T12:03:35;2.20;;;1.20;;
68234;SDS011;55052;52.056;5.296;2023-08-08T12:06:11;2.70;;;1.40;;
68234;SDS011;55052;52.056;5.296;2023-08-08T12:08:40;3.17;;;1.20;;
68234;SDS011;55052;52.056;5.296;2023-08-08T12:11:11;2.97;;;1.40;;
68234;SDS011;55052;52.056;5.296;2023-08-08T12:13:40;8.80;;;1.60;;
68234;SDS011;55052;52.056;5.296;2023-08-08T12:16:09;5.32;;;1.35;;
68234;SDS011;55052;52.056;5.296;2023-08-08T12:18:43;4.03;;;1.40;;
68234;SDS011;55052;52.056;5.296;2023-08-08T12:21:10;4.45;;;1.50;;
68234;SDS011;55052;52.056;5.296;2023-08-08T12:23:37;3.05;;;1.48;;
68234;SDS011;55052;52.056;5.296;2023-08-08T12:26:04;4.78;;;1.30;;
68234;SDS011;55052;52.056;5.296;2023-08-08T12:28:32;4.32;;;1.30;;
68234;SDS011;55052;52.056;5.296;2023-08-08T12:30:59;2.50;;;1.25;;
68234;SDS011;55052;52.056;5.296;2023-08-08T12:33:26;5.57;;;1.50;;
68234;SDS011;55052;52.056;5.296;2023-08-08T12:35:53;2.50;;;1.38;;
68234;SDS011;55052;52.056;5.296;2023-08-08T12:38:20;3.00;;;1.17;;
68234;SDS011;55052;52.056;5.296;2023-08-08T12:40:47;4.50;;;1.30;;
68234;SDS011;55052;52.056;5.296;2023-08-08T12:43:14;4.65;;;1.20;;
68234;SDS011;55052;52.056;5.296;2023-08-08T12:45:44;2.63;;;1.10;;
68234;SDS011;55052;52.056;5.296;2023-08-08T12:48:12;3.80;;;1.25;;
68234;SDS011;55052;52.056;5.296;2023-08-08T12:50:39;4.68;;;1.30;;
68234;SDS011;55052;52.056;5.296;2023-08-08T12:53:07;2.50;;;1.10;;
68234;SDS011;55052;52.056;5.296;2023-08-08T12:55:34;5.13;;;1.35;;
68234;SDS011;55052;52.056;5.296;2023-08-08T12:58:01;3.90;;;1.13;;
68234;SDS011;55052;52.056;5.296;2023-08-08T13:00:29;3.08;;;1.20;;
68234;SDS011;55052;52.056;5.296;2023-08-08T13:02:56;2.88;;;1.42;;
68234;SDS011;55052;52.056;5.296;2023-08-08T13:05:23;3.13;;;1.20;;
68234;SDS011;55052;52.056;5.296;2023-08-08T13:07:50;3.60;;;1.30;;
68234;SDS011;55052;52.056;5.296;2023-08-08T13:10:17;5.47;;;1.67;;
68234;SDS011;55052;52.056;5.296;2023-08-08T13:12:46;2.63;;;1.20;;
68234;SDS011;55052;52.056;5.296;2023-08-08T13:15:13;3.17;;;1.30;;
68234;SDS011;55052;52.056;5.296;2023-08-08T13:17:40;5.00;;;1.40;;
68234;SDS011;55052;52.056;5.296;2023-08-08T13:20:07;4.38;;;1.40;;
68234;SDS011;55052;52.056;5.296;2023-08-08T13:22:35;3.63;;;1.38;;
68234;SDS011;55052;52.056;5.296;2023-08-08T13:25:01;4.03;;;1.30;;
68234;SDS011;55052;52.056;5.296;2023-08-08T13:27:28;4.03;;;1.33;;
68234;SDS011;55052;52.056;5.296;2023-08-08T13:29:55;4.18;;;1.33;;
68234;SDS011;55052;52.056;5.296;2023-08-08T13:32:23;4.10;;;1.27;;
68234;SDS011;55052;52.056;5.296;2023-08-08T13:34:50;5.63;;;1.30;;
68234;SDS011;55052;52.056;5.296;2023-08-08T13:37:17;5.15;;;1.63;;
68234;SDS011;55052;52.056;5.296;2023-08-08T13:39:43;3.78;;;1.20;;
68234;SDS011;55052;52.056;5.296;2023-08-08T13:42:11;3.47;;;1.50;;
68234;SDS011;55052;52.056;5.296;2023-08-08T13:44:38;7.57;;;1.40;;
68234;SDS011;55052;52.056;5.296;2023-08-08T13:47:05;5.47;;;1.88;;
68234;SDS011;55052;52.056;5.296;2023-08-08T13:49:32;6.05;;;1.40;;
68234;SDS011;55052;52.056;5.296;2023-08-08T13:51:58;2.78;;;1.30;;
68234;SDS011;55052;52.056;5.296;2023-08-08T13:54:26;4.18;;;1.20;;
68234;SDS011;55052;52.056;5.296;2023-08-08T13:56:52;6.60;;;1.58;;
68234;SDS011;55052;52.056;5.296;2023-08-08T13:59:19;4.13;;;1.30;;
68234;SDS011;55052;52.056;5.296;2023-08-08T14:01:46;7.13;;;1.40;;
68234;SDS011;55052;52.056;5.296;2023-08-08T14:04:13;7.32;;;1.70;;
68234;SDS011;55052;52.056;5.296;2023-08-08T14:06:40;3.95;;;1.30;;
68234;SDS011;55052;52.056;5.296;2023-08-08T14:09:06;4.20;;;1.50;;
68234;SDS011;55052;52.056;5.296;2023-08-08T14:11:36;3.50;;;1.30;;
68234;SDS011;55052;52.056;5.296;2023-08-08T14:14:03;4.85;;;1.70;;
68234;SDS011;55052;52.056;5.296;2023-08-08T14:16:30;5.70;;;1.80;;
68234;SDS011;55052;52.056;5.296;2023-08-08T14:18:57;3.55;;;1.38;;
68234;SDS011;55052;52.056;5.296;2023-08-08T14:21:24;4.05;;;1.60;;
68234;SDS011;55052;52.056;5.296;2023-08-08T14:23:50;3.75;;;1.83;;
68234;SDS011;55052;52.056;5.296;2023-08-08T14:26:17;5.75;;;1.70;;
68234;SDS011;55052;52.056;5.296;2023-08-08T14:28:44;6.03;;;1.67;;
68234;SDS011;55052;52.056;5.296;2023-08-08T14:31:11;5.03;;;1.58;;
68234;SDS011;55052;52.056;5.296;2023-08-08T14:33:37;4.35;;;1.40;;
68234;SDS011;55052;52.056;5.296;2023-08-08T14:36:04;3.65;;;1.55;;
68234;SDS011;55052;52.056;5.296;2023-08-08T14:38:34;5.72;;;1.40;;
68234;SDS011;55052;52.056;5.296;2023-08-08T14:41:01;4.95;;;1.35;;
68234;SDS011;55052;52.056;5.296;2023-08-08T14:43:28;2.90;;;1.45;;
68234;SDS011;55052;52.056;5.296;2023-08-08T14:45:55;6.53;;;1.92;;